Hibaldstow, United Kingdom
Current Conditions -  °F | °C
As of 8:20 PM on Monday 24 Nov 2014 (Local Time) from EGNJ Reporting Station
Scattered Clouds Scattered Clouds  
Wind Chill: 34°   Ceiling: Unl
Heat Index: 39°   Visibility: 4mi
Dew Point: 39°   Wind: 8mph
Humidity: 100%   Direction: 200°SSW
Pressure: 30.33"   Gusts: NA
Location:  53.51°N, 0.52°W
Report Text: EGNJ 242020Z 20007KT 6000 SCT035 04/04 Q1027
Loading
Personal Weather Stations






























Interactive Weather Map New forecast layout! Learn more

10-Day Weather Forecast

Advertisements
Track Severe Weather on mobile